createdAt,value
2022-12-11T00:05:48.622Z,-1.29
2022-12-11T00:11:31.863Z,-1.25
2022-12-11T00:17:15.148Z,-1.21
2022-12-11T00:22:57.752Z,-1.13
2022-12-11T00:28:40.456Z,-1.18
2022-12-11T00:34:23.655Z,-1.22
2022-12-11T00:40:06.992Z,-1.29
2022-12-11T00:45:50.112Z,-1.26
2022-12-11T00:51:32.456Z,-1.26
2022-12-11T00:57:14.825Z,-1.32
2022-12-11T01:02:58.084Z,-1.44
2022-12-11T01:08:41.269Z,-1.50
2022-12-11T01:14:23.995Z,-1.47
2022-12-11T01:20:06.984Z,-1.43
2022-12-11T01:25:50.206Z,-1.29
2022-12-11T01:31:32.906Z,-1.19
2022-12-11T01:37:16.116Z,-1.22
2022-12-11T01:42:59.425Z,-1.34
2022-12-11T01:48:42.469Z,-1.35
2022-12-11T01:54:26.271Z,-1.37
2022-12-11T02:00:09.587Z,-1.46
2022-12-11T02:05:55.590Z,-1.51
2022-12-11T02:11:56.838Z,-1.54
2022-12-11T02:17:43.429Z,-1.55
2022-12-11T02:23:25.643Z,-1.56
2022-12-11T02:29:09.395Z,-1.61
2022-12-11T02:34:57.901Z,-1.68
2022-12-11T02:40:41.139Z,-1.59
2022-12-11T02:46:23.754Z,-1.48
2022-12-11T02:52:06.546Z,-1.43
2022-12-11T02:57:33.404Z,-1.38
2022-12-11T03:02:58.784Z,-1.30
2022-12-11T03:08:23.963Z,-1.21
2022-12-11T03:13:48.959Z,-1.19
2022-12-11T03:19:15.080Z,-1.18
2022-12-11T03:24:40.356Z,-1.30
2022-12-11T03:30:05.305Z,-1.40
2022-12-11T03:35:40.944Z,-1.54
2022-12-11T03:41:06.246Z,-1.71
2022-12-11T03:46:35.114Z,-1.87
2022-12-11T03:52:00.824Z,-1.94
2022-12-11T03:57:27.050Z,-1.87
2022-12-11T04:03:11.209Z,-1.87
2022-12-11T04:08:38.132Z,-1.82
2022-12-11T04:14:24.062Z,-1.81
2022-12-11T04:20:06.135Z,-1.79
2022-12-11T04:25:31.438Z,-1.71
2022-12-11T04:30:57.174Z,-1.63
2022-12-11T04:36:22.680Z,-1.66
2022-12-11T04:41:48.543Z,-1.76
2022-12-11T04:47:13.924Z,-1.74
2022-12-11T04:52:39.511Z,-1.82
2022-12-11T04:58:04.490Z,-1.90
2022-12-11T05:03:29.924Z,-1.97
2022-12-11T05:08:55.104Z,-1.95
2022-12-11T05:14:21.347Z,-1.89
2022-12-11T05:19:46.826Z,-1.85
2022-12-11T05:25:12.091Z,-1.82
2022-12-11T05:30:37.665Z,-1.80
2022-12-11T05:36:03.025Z,-1.79
2022-12-11T05:41:28.660Z,-1.80
2022-12-11T05:46:54.906Z,-1.88
2022-12-11T05:52:20.051Z,-2.04
2022-12-11T05:57:45.387Z,-2.08
2022-12-11T06:03:10.872Z,-2.16
2022-12-11T06:08:53.620Z,-2.20
2022-12-11T06:14:35.816Z,-2.17
2022-12-11T06:20:18.921Z,-2.17
2022-12-11T06:26:01.462Z,-2.16
2022-12-11T06:31:43.820Z,-2.14
2022-12-11T07:01:15.342Z,-2.54
2022-12-11T07:06:42.085Z,-2.52
2022-12-11T07:12:07.673Z,-2.47
2022-12-11T07:17:32.999Z,-2.40
2022-12-11T07:22:58.410Z,-2.26
2022-12-11T07:28:25.658Z,-2.14
2022-12-11T07:34:00.829Z,-2.03
2022-12-11T07:39:30.539Z,-1.93
2022-12-11T07:44:57.605Z,-2.00
2022-12-11T07:50:24.226Z,-2.14
2022-12-11T07:55:51.030Z,-2.27
2022-12-11T08:01:20.547Z,-2.32
2022-12-11T08:06:46.048Z,-2.38
2022-12-11T08:12:12.499Z,-2.33
2022-12-11T08:17:40.227Z,-2.32
2022-12-11T08:23:05.992Z,-2.36
2022-12-11T08:28:31.591Z,-2.34
2022-12-11T08:33:57.530Z,-2.36
2022-12-11T08:39:23.194Z,-2.39
2022-12-11T08:44:49.821Z,-2.48
2022-12-11T08:50:17.522Z,-2.51
2022-12-11T08:55:42.921Z,-2.43
2022-12-11T09:01:14.674Z,-2.39
2022-12-11T09:06:43.301Z,-2.36
2022-12-11T09:12:11.705Z,-2.35
2022-12-11T09:17:39.086Z,-2.22
2022-12-11T09:23:05.120Z,-2.19
2022-12-11T09:28:31.760Z,-2.18
2022-12-11T09:33:58.767Z,-2.17
2022-12-11T09:39:26.208Z,-2.28
2022-12-11T09:45:13.129Z,-2.30
2022-12-11T09:50:40.042Z,-2.32
2022-12-11T09:56:07.084Z,-2.31
2022-12-11T10:01:41.948Z,-2.32
2022-12-11T10:07:11.497Z,-2.28
2022-12-11T10:12:57.416Z,-2.34
2022-12-11T10:18:24.184Z,-2.35
2022-12-11T10:24:01.195Z,-2.34
2022-12-11T10:29:27.774Z,-2.35
2022-12-11T10:34:57.003Z,-2.29
2022-12-11T10:40:23.081Z,-2.31
2022-12-11T10:45:57.155Z,-2.28
2022-12-11T10:51:24.055Z,-2.28
2022-12-11T10:56:50.193Z,-2.22
2022-12-11T11:02:25.711Z,-2.27
2022-12-11T11:07:51.514Z,-2.37
2022-12-11T11:13:17.059Z,-2.34
2022-12-11T11:18:43.813Z,-2.28
2022-12-11T11:24:20.728Z,-2.29
2022-12-11T11:29:52.820Z,-2.34
2022-12-11T11:35:19.404Z,-2.30
2022-12-11T11:40:46.648Z,-2.35
2022-12-11T11:46:25.458Z,-2.40
2022-12-11T11:52:20.650Z,-2.35
2022-12-11T11:57:59.462Z,-2.28
2022-12-11T12:03:25.619Z,-2.32
2022-12-11T12:08:53.658Z,-2.43
2022-12-11T12:20:09.933Z,-2.40
2022-12-11T12:25:55.790Z,-2.30
2022-12-11T12:31:34.256Z,-2.38
2022-12-11T12:37:06.719Z,-2.47
2022-12-11T12:44:17.962Z,-2.43
2022-12-11T12:53:28.815Z,-2.37
2022-12-11T13:00:55.316Z,-2.46
2022-12-11T13:06:40.512Z,-2.43
2022-12-11T13:12:30.798Z,-2.48
2022-12-11T13:18:30.883Z,-2.58
2022-12-11T13:24:15.344Z,-2.54
2022-12-11T13:30:15.389Z,-2.57
2022-12-11T13:35:39.266Z,-2.62
2022-12-11T13:41:21.170Z,-2.64
2022-12-11T13:47:03.512Z,-2.64
2022-12-11T13:52:54.221Z,-2.70
2022-12-11T13:58:36.342Z,-2.74
2022-12-11T14:04:18.724Z,-2.69
2022-12-11T14:09:45.195Z,-2.63
2022-12-11T14:15:27.096Z,-2.59
2022-12-11T14:21:08.886Z,-2.58
2022-12-11T14:26:53.651Z,-2.64
2022-12-11T14:32:38.645Z,-2.64
2022-12-11T14:38:24.873Z,-2.61
2022-12-11T14:44:06.274Z,-2.63
2022-12-11T14:50:08.516Z,-2.74
2022-12-11T14:55:49.949Z,-2.80
2022-12-11T15:01:35.051Z,-2.82
2022-12-11T15:07:24.891Z,-2.83
2022-12-11T15:12:48.501Z,-2.87
2022-12-11T15:18:18.474Z,-2.85
2022-12-11T15:23:49.476Z,-2.82
2022-12-11T15:29:34.334Z,-2.83
2022-12-11T15:35:25.032Z,-2.88
2022-12-11T15:41:06.597Z,-2.90
2022-12-11T15:46:30.478Z,-2.88
2022-12-11T15:52:11.593Z,-2.92
2022-12-11T15:57:36.102Z,-2.95
2022-12-11T16:03:19.118Z,-2.96
2022-12-11T16:09:00.192Z,-2.98
2022-12-11T16:14:23.694Z,-3.02
2022-12-11T16:19:47.586Z,-3.02
2022-12-11T16:25:11.802Z,-3.00
2022-12-11T16:30:53.612Z,-3.02
2022-12-11T16:36:35.556Z,-3.05
2022-12-11T16:42:18.241Z,-3.02
2022-12-11T16:47:59.230Z,-3.00
2022-12-11T16:53:23.418Z,-3.05
2022-12-11T16:58:47.997Z,-3.09
2022-12-11T17:04:12.440Z,-3.09
2022-12-11T17:09:53.674Z,-3.10
2022-12-11T17:15:35.139Z,-3.11
2022-12-11T17:21:17.116Z,-3.14
2022-12-11T17:26:40.732Z,-3.13
2022-12-11T17:32:21.872Z,-3.14
2022-12-11T17:38:04.082Z,-3.12
2022-12-11T17:43:28.551Z,-3.08
2022-12-11T17:48:53.775Z,-3.11
2022-12-11T17:54:17.791Z,-3.17
2022-12-11T17:59:41.792Z,-3.17
2022-12-11T18:05:22.818Z,-3.14
2022-12-11T18:11:10.308Z,-3.14
2022-12-11T18:16:35.416Z,-3.18
2022-12-11T18:22:16.197Z,-3.17
2022-12-11T18:27:40.133Z,-3.15
2022-12-11T18:33:20.962Z,-3.14
2022-12-11T18:39:03.732Z,-3.17
2022-12-11T18:44:28.294Z,-3.17
2022-12-11T18:49:52.867Z,-3.16
2022-12-11T18:55:16.783Z,-3.15
2022-12-11T19:00:57.919Z,-3.19
2022-12-11T19:06:39.207Z,-3.21
2022-12-11T19:12:20.534Z,-3.24
2022-12-11T19:18:02.871Z,-3.24
2022-12-11T19:23:27.051Z,-3.22
2022-12-11T19:28:51.368Z,-3.22
2022-12-11T19:34:16.248Z,-3.27
2022-12-11T19:39:57.307Z,-3.27
2022-12-11T19:45:38.380Z,-3.25
2022-12-11T19:51:22.756Z,-3.22
2022-12-11T19:57:05.045Z,-3.24
2022-12-11T20:02:29.081Z,-3.26
2022-12-11T20:07:53.630Z,-3.24
2022-12-11T20:13:17.983Z,-3.25
2022-12-11T20:18:58.775Z,-3.26
2022-12-11T20:24:41.052Z,-3.29
2022-12-11T20:30:23.865Z,-3.29
2022-12-11T20:36:15.418Z,-3.29
2022-12-11T20:41:39.081Z,-3.31
2022-12-11T20:47:21.216Z,-3.30
2022-12-11T20:52:45.093Z,-3.30
2022-12-11T20:58:26.708Z,-3.31
2022-12-11T21:04:08.537Z,-3.33
2022-12-11T21:09:32.116Z,-3.30
2022-12-11T21:14:55.734Z,-3.29
2022-12-11T21:20:19.814Z,-3.29
2022-12-11T21:26:01.419Z,-3.28
2022-12-11T21:31:43.195Z,-3.27
2022-12-11T21:37:24.884Z,-3.24
2022-12-11T21:43:06.201Z,-3.25
2022-12-11T21:48:29.744Z,-3.24
2022-12-11T21:53:53.656Z,-3.24
2022-12-11T21:59:17.606Z,-3.19
2022-12-11T22:05:01.752Z,-3.16
2022-12-11T22:10:43.631Z,-3.17
2022-12-11T22:16:25.042Z,-3.18
2022-12-11T22:22:06.641Z,-3.19
2022-12-11T22:27:29.981Z,-3.18
2022-12-11T22:32:54.106Z,-3.15
2022-12-11T22:38:17.733Z,-3.12
2022-12-11T22:43:59.142Z,-3.10
2022-12-11T22:49:40.324Z,-3.09
2022-12-11T22:55:21.500Z,-3.10
2022-12-11T23:00:45.662Z,-3.12
2022-12-11T23:06:26.785Z,-3.11
2022-12-11T23:12:08.722Z,-3.09
2022-12-11T23:17:33.316Z,-3.07
2022-12-11T23:22:57.146Z,-3.06
2022-12-11T23:28:21.579Z,-3.05
2022-12-11T23:34:02.902Z,-3.05
2022-12-11T23:39:44.048Z,-3.04
2022-12-11T23:45:26.299Z,-3.01
2022-12-11T23:51:08.521Z,-3.01
2022-12-11T23:56:31.903Z,-2.99
